Aviation Digital Data Service (ADDS)

Output produced by METARs form (1819 UTC 21 September 2019)
found at http://aviationweather.gov/metar/data/
 
KSGR 211753Z 13012KT 10SM FEW037 SCT046 SCT060 32/24 A3006 RMK AO2 SLP181 T03220239 10322 20256 58005
KSGR 211720Z 2118/2218 13009KT P6SM SCT035 BKN110 
     FM220900 13005KT P6SM SCT030 
     FM221500 14007KT P6SM SCT035